Terminal Aerodrome Forecast
Issued by NWS Shreveport, LA

Home | Current Version | Previous Version | Text Only | Print | Product List | Glossary On
Versions: 1 2 3 4 5 6 7 8 9 10 11 12 13 14 15 16 17 18 19 20 21 22 23 24 25
246
FTUS44 KSHV 231757
TAFMLU
TAF
KMLU 231757Z 2318/2418 31008KT P6SM SCT018 BKN035
     FM240000 31008KT P6SM VCTS BKN025CB OVC100
     FM240300 VRB10G18KT 3SM -TSRA BR BKN015 OVC035CB
     FM240900 30006KT P6SM BKN015
     FM241500 30010KT P6SM SCT015=

USA.gov is the U.S. government's official web portal to all federal, state and local government web resources and services.